createdAt,value
2023-02-13T00:02:47.569Z,101470.97
2023-02-13T00:05:51.387Z,101478.09
2023-02-13T00:08:56.682Z,101477.66
2023-02-13T00:12:00.498Z,101481.22
2023-02-13T00:15:04.809Z,101481.69
2023-02-13T00:18:08.435Z,101481.69
2023-02-13T00:21:14.181Z,101483.44
2023-02-13T00:24:19.325Z,101496.56
2023-02-13T00:27:23.464Z,101500.00
2023-02-13T00:30:27.253Z,101497.13
2023-02-13T00:33:31.279Z,101494.72
2023-02-13T00:36:35.500Z,101493.88
2023-02-13T00:39:40.669Z,101494.47
2023-02-13T00:42:44.375Z,101495.19
2023-02-13T00:45:48.037Z,101492.97
2023-02-13T00:48:51.635Z,101490.09
2023-02-13T00:51:55.388Z,101485.38
2023-02-13T00:55:01.035Z,101492.06
2023-02-13T00:58:04.781Z,101492.06
2023-02-13T01:01:08.579Z,101499.41
2023-02-13T01:04:12.228Z,101491.56
2023-02-13T01:07:16.797Z,101495.50
2023-02-13T01:10:22.619Z,101495.84
2023-02-13T01:13:26.435Z,101492.56
2023-02-13T01:16:30.716Z,101491.50
2023-02-13T01:19:34.533Z,101500.31
2023-02-13T01:22:38.280Z,101493.03
2023-02-13T01:25:44.278Z,101493.19
2023-02-13T01:28:48.285Z,101496.75
2023-02-13T01:31:52.203Z,101500.69
2023-02-13T01:34:55.873Z,101510.75
2023-02-13T01:37:59.532Z,101501.53
2023-02-13T01:41:04.760Z,101512.47
2023-02-13T01:44:41.966Z,101516.19
2023-02-13T01:47:49.524Z,101516.88
2023-02-13T01:50:59.112Z,101517.38
2023-02-13T01:54:06.006Z,101520.88
2023-02-13T01:57:16.569Z,101526.91
2023-02-13T02:00:21.254Z,101515.84
2023-02-13T02:03:29.054Z,101516.53
2023-02-13T02:06:40.352Z,101523.06
2023-02-13T02:09:46.784Z,101527.06
2023-02-13T02:13:00.203Z,101521.78
2023-02-13T02:16:05.359Z,101526.75
2023-02-13T02:19:16.246Z,101530.56
2023-02-13T02:23:00.362Z,101547.56
2023-02-13T02:26:43.802Z,101545.06
2023-02-13T02:30:20.595Z,101549.41
2023-02-13T02:33:35.760Z,101555.50
2023-02-13T02:36:58.525Z,101552.72
2023-02-13T02:40:19.681Z,101563.94
2023-02-13T02:43:39.840Z,101557.94
2023-02-13T02:47:09.316Z,101569.41
2023-02-13T02:50:41.200Z,101572.66
2023-02-13T02:53:51.967Z,101568.41
2023-02-13T02:57:02.191Z,101566.84
2023-02-13T03:00:24.858Z,101571.09
2023-02-13T03:03:47.594Z,101575.50
2023-02-13T03:06:57.967Z,101581.63
2023-02-13T03:10:22.397Z,101577.84
2023-02-13T03:13:40.546Z,101575.63
2023-02-13T03:17:02.079Z,101576.09
2023-02-13T03:20:36.465Z,101569.28
2023-02-13T03:23:52.915Z,101575.13
2023-02-13T03:27:05.175Z,101578.06
2023-02-13T03:30:18.550Z,101574.34
2023-02-13T03:33:41.948Z,101577.72
2023-02-13T03:37:07.527Z,101590.25
2023-02-13T03:40:17.710Z,101589.75
2023-02-13T03:43:21.934Z,101590.69
2023-02-13T03:46:28.099Z,101584.97
2023-02-13T03:50:09.215Z,101591.53
2023-02-13T03:53:16.116Z,101581.91
2023-02-13T03:56:40.774Z,101583.97
2023-02-13T03:59:44.538Z,101582.53
2023-02-13T04:02:57.404Z,101587.28
2023-02-13T04:06:06.295Z,101584.78
2023-02-13T04:09:10.042Z,101582.59
2023-02-13T04:12:20.468Z,101590.28
2023-02-13T04:15:30.359Z,101593.84
2023-02-13T04:18:35.612Z,101588.66
2023-02-13T04:21:41.601Z,101593.00
2023-02-13T04:24:45.232Z,101594.94
2023-02-13T04:27:50.227Z,101599.75
2023-02-13T04:30:54.077Z,101590.41
2023-02-13T04:33:58.036Z,101596.44
2023-02-13T04:37:01.612Z,101592.91
2023-02-13T04:40:05.877Z,101588.25
2023-02-13T04:43:11.054Z,101584.75
2023-02-13T04:46:14.638Z,101601.66
2023-02-13T04:49:18.166Z,101603.47
2023-02-13T04:52:21.646Z,101605.41
2023-02-13T04:55:25.734Z,101604.03
2023-02-13T04:58:30.882Z,101602.75
2023-02-13T05:01:34.588Z,101603.84
2023-02-13T05:04:38.294Z,101594.84
2023-02-13T05:07:43.026Z,101601.34
2023-02-13T05:10:46.578Z,101605.66
2023-02-13T05:13:51.651Z,101604.09
2023-02-13T05:16:55.274Z,101612.97
2023-02-13T05:19:59.503Z,101611.03
2023-02-13T05:23:20.470Z,101622.91
2023-02-13T05:26:24.078Z,101616.66
2023-02-13T05:29:29.247Z,101632.94
2023-02-13T05:32:32.817Z,101633.16
2023-02-13T05:35:36.410Z,101637.84
2023-02-13T05:38:41.455Z,101648.88
2023-02-13T05:41:45.781Z,101646.41
2023-02-13T05:44:50.909Z,101659.09
2023-02-13T05:47:54.528Z,101663.53
2023-02-13T05:50:58.466Z,101668.31
2023-02-13T05:54:02.262Z,101667.84
2023-02-13T05:57:06.398Z,101671.72
2023-02-13T06:00:12.941Z,101668.53
2023-02-13T06:03:16.778Z,101667.94
2023-02-13T06:06:20.688Z,101675.94
2023-02-13T06:09:24.714Z,101667.72
2023-02-13T06:12:28.558Z,101668.28
2023-02-13T06:15:33.759Z,101671.16
2023-02-13T06:18:37.811Z,101671.03
2023-02-13T06:21:41.613Z,101671.69
2023-02-13T06:24:45.422Z,101675.34
2023-02-13T06:27:49.736Z,101680.34
2023-02-13T06:30:55.590Z,101680.34
2023-02-13T06:33:59.647Z,101684.88
2023-02-13T06:37:03.404Z,101668.63
2023-02-13T06:40:08.694Z,101668.31
2023-02-13T06:43:12.484Z,101680.09
2023-02-13T06:46:17.843Z,101682.81
2023-02-13T06:49:21.734Z,101680.50
2023-02-13T06:52:25.743Z,101678.25
2023-02-13T06:55:29.761Z,101673.28
2023-02-13T06:58:34.233Z,101672.25
2023-02-13T07:01:39.452Z,101672.75
2023-02-13T07:04:43.264Z,101678.34
2023-02-13T07:07:47.132Z,101668.41
2023-02-13T07:10:50.845Z,101657.56
2023-02-13T07:13:54.586Z,101661.19
2023-02-13T07:17:00.165Z,101662.50
2023-02-13T07:20:04.743Z,101661.88
2023-02-13T07:23:08.615Z,101664.50
2023-02-13T07:26:12.585Z,101662.56
2023-02-13T07:29:16.345Z,101669.97
2023-02-13T07:32:21.826Z,101661.41
2023-02-13T07:35:25.595Z,101672.22
2023-02-13T07:38:29.388Z,101677.00
2023-02-13T07:41:33.135Z,101672.97
2023-02-13T07:44:37.017Z,101669.28
2023-02-13T07:47:42.349Z,101665.25
2023-02-13T07:50:46.115Z,101665.41
2023-02-13T07:53:50.012Z,101667.03
2023-02-13T07:56:53.823Z,101665.00
2023-02-13T07:59:57.665Z,101662.28
2023-02-13T08:03:03.531Z,101659.03
2023-02-13T08:06:08.872Z,101656.91
2023-02-13T08:09:39.581Z,101650.94
2023-02-13T08:12:44.423Z,101654.19
2023-02-13T08:15:48.397Z,101657.75
2023-02-13T08:18:53.722Z,101652.91
2023-02-13T08:21:57.964Z,101657.81
2023-02-13T08:25:01.771Z,101655.03
2023-02-13T08:28:06.002Z,101658.94
2023-02-13T08:31:12.756Z,101648.16
2023-02-13T08:34:18.031Z,101651.50
2023-02-13T08:37:21.809Z,101645.66
2023-02-13T08:40:26.097Z,101653.31
2023-02-13T08:43:29.880Z,101651.91
2023-02-13T08:46:33.691Z,101650.25
2023-02-13T08:49:38.828Z,101640.47
2023-02-13T08:52:42.608Z,101637.84
2023-02-13T08:55:53.869Z,101640.88
2023-02-13T08:58:57.622Z,101633.13
2023-02-13T09:02:01.611Z,101639.72
2023-02-13T09:05:07.474Z,101636.38
2023-02-13T09:08:13.912Z,101629.84
2023-02-13T09:11:17.710Z,101631.00
2023-02-13T09:14:22.218Z,101624.00
2023-02-13T09:17:27.111Z,101627.75
2023-02-13T09:20:32.274Z,101621.19
2023-02-13T09:23:37.533Z,101613.72
2023-02-13T09:26:41.378Z,101613.50
2023-02-13T09:29:45.239Z,101604.13
2023-02-13T09:32:53.636Z,101604.72
2023-02-13T09:35:59.179Z,101594.63
2023-02-13T09:39:03.302Z,101598.31
2023-02-13T09:42:17.166Z,101584.16
2023-02-13T09:45:22.636Z,101575.13
2023-02-13T09:48:31.248Z,101574.34
2023-02-13T09:51:37.194Z,101571.03
2023-02-13T09:54:40.915Z,101567.78
2023-02-13T09:57:49.134Z,101559.63
2023-02-13T10:00:58.759Z,101553.09
2023-02-13T10:04:29.079Z,101551.38
2023-02-13T10:07:42.044Z,101535.38
2023-02-13T10:10:53.519Z,101527.81
2023-02-13T10:14:07.385Z,101525.63
2023-02-13T10:17:16.527Z,101517.69
2023-02-13T10:20:30.045Z,101514.31
2023-02-13T10:23:43.995Z,101510.66
2023-02-13T10:26:48.926Z,101505.00
2023-02-13T10:30:07.568Z,101499.31
2023-02-13T10:33:21.191Z,101495.75
2023-02-13T10:36:29.269Z,101479.72
2023-02-13T10:39:34.556Z,101486.41
2023-02-13T10:42:46.490Z,101469.72
2023-02-13T10:46:11.971Z,101473.50
2023-02-13T10:49:36.378Z,101467.03
2023-02-13T10:52:51.688Z,101457.00
2023-02-13T10:56:13.178Z,101457.47
2023-02-13T10:59:32.454Z,101452.75
2023-02-13T11:02:37.335Z,101437.72
2023-02-13T11:05:42.727Z,101435.19
2023-02-13T11:08:49.263Z,101431.97
2023-02-13T11:11:55.158Z,101426.47
2023-02-13T11:15:00.568Z,101419.28
2023-02-13T11:18:18.327Z,101414.41
2023-02-13T11:21:25.200Z,101400.66
2023-02-13T11:24:31.378Z,101396.22
2023-02-13T11:27:39.955Z,101389.44
2023-02-13T11:30:43.939Z,101389.53
2023-02-13T11:33:47.969Z,101374.81
2023-02-13T11:36:54.086Z,101372.78
2023-02-13T11:40:00.264Z,101368.09
2023-02-13T11:43:09.470Z,101361.81
2023-02-13T11:46:20.391Z,101353.91
2023-02-13T11:49:25.883Z,101353.53
2023-02-13T11:52:31.153Z,101345.72
2023-02-13T11:55:38.390Z,101345.00
2023-02-13T11:58:44.411Z,101340.72
2023-02-13T12:01:50.644Z,101332.97
2023-02-13T12:04:56.105Z,101327.44
2023-02-13T12:08:02.311Z,101320.41
2023-02-13T12:11:16.392Z,101317.38
2023-02-13T12:14:23.758Z,101313.34
2023-02-13T12:17:32.660Z,101301.53
2023-02-13T12:20:47.805Z,101295.53
2023-02-13T12:23:59.381Z,101298.81
2023-02-13T12:27:16.452Z,101292.16
2023-02-13T12:30:40.453Z,101293.78
2023-02-13T12:34:25.693Z,101291.47
2023-02-13T12:37:44.546Z,101288.88
2023-02-13T12:41:07.721Z,101292.25
2023-02-13T12:44:31.661Z,101280.53
2023-02-13T12:47:45.735Z,101279.19
2023-02-13T12:51:04.487Z,101274.78
2023-02-13T12:54:25.407Z,101267.84
2023-02-13T12:57:47.072Z,101266.91
2023-02-13T13:01:03.073Z,101270.34
2023-02-13T13:04:18.447Z,101262.31
2023-02-13T13:07:49.687Z,101257.94
2023-02-13T13:11:04.153Z,101262.75
2023-02-13T13:14:15.868Z,101264.03
2023-02-13T13:17:33.983Z,101250.41
2023-02-13T13:21:00.169Z,101250.84
2023-02-13T13:24:11.497Z,101246.09
2023-02-13T13:27:22.582Z,101245.16
2023-02-13T13:30:30.444Z,101233.16
2023-02-13T13:33:36.243Z,101240.22
2023-02-13T13:36:50.068Z,101232.50
2023-02-13T13:39:59.051Z,101223.19
2023-02-13T13:43:09.842Z,101223.94
2023-02-13T13:46:20.398Z,101226.41
2023-02-13T13:49:36.610Z,101222.22
2023-02-13T13:52:41.927Z,101219.22
2023-02-13T13:56:08.907Z,101222.47
2023-02-13T13:59:19.861Z,101215.75
2023-02-13T14:02:44.246Z,101217.25
2023-02-13T14:06:03.519Z,101216.22
2023-02-13T14:09:29.638Z,101202.00
2023-02-13T14:12:48.107Z,101200.38
2023-02-13T14:15:55.384Z,101207.63
2023-02-13T14:18:59.322Z,101198.69
2023-02-13T14:22:32.655Z,101201.19
2023-02-13T14:25:38.844Z,101203.13
2023-02-13T14:28:44.292Z,101204.03
2023-02-13T14:32:01.559Z,101196.84
2023-02-13T14:35:17.841Z,101194.09
2023-02-13T14:38:26.481Z,101190.06
2023-02-13T14:41:59.153Z,101186.59
2023-02-13T14:45:05.612Z,101188.53
2023-02-13T14:48:15.450Z,101191.81
2023-02-13T14:51:29.011Z,101181.88
2023-02-13T14:54:35.884Z,101179.72
2023-02-13T14:57:45.545Z,101175.25
2023-02-13T15:00:56.785Z,101175.81
2023-02-13T15:04:07.111Z,101169.41
2023-02-13T15:07:17.483Z,101169.88
2023-02-13T15:10:35.578Z,101173.94
2023-02-13T15:13:41.281Z,101166.97
2023-02-13T15:16:47.707Z,101168.75
2023-02-13T15:19:54.362Z,101166.97
2023-02-13T15:22:59.397Z,101166.91
2023-02-13T15:26:05.225Z,101168.84
2023-02-13T15:29:27.866Z,101169.41
2023-02-13T15:32:37.173Z,101168.69
2023-02-13T15:35:41.256Z,101162.84
2023-02-13T15:38:45.073Z,101165.53
2023-02-13T15:41:52.072Z,101165.75
2023-02-13T15:44:59.844Z,101155.78
2023-02-13T15:48:03.780Z,101155.78
2023-02-13T15:51:07.745Z,101154.66
2023-02-13T15:54:25.775Z,101164.06
2023-02-13T15:57:30.305Z,101160.78
2023-02-13T16:00:38.193Z,101167.22
2023-02-13T16:03:44.977Z,101161.31
2023-02-13T16:06:50.906Z,101157.16
2023-02-13T16:10:17.696Z,101164.56
2023-02-13T16:13:21.540Z,101169.38
2023-02-13T16:16:27.679Z,101164.47
2023-02-13T16:19:36.639Z,101169.69
2023-02-13T16:22:45.855Z,101177.03
2023-02-13T16:25:50.251Z,101176.41
2023-02-13T16:28:55.973Z,101184.97
2023-02-13T16:32:14.207Z,101176.91
2023-02-13T16:35:28.313Z,101183.22
2023-02-13T16:38:35.956Z,101190.72
2023-02-13T16:41:39.885Z,101193.84
2023-02-13T16:44:43.766Z,101185.91
2023-02-13T16:47:49.077Z,101191.03
2023-02-13T16:50:57.413Z,101186.44
2023-02-13T16:54:02.624Z,101180.28
2023-02-13T16:57:18.973Z,101183.59
2023-02-13T17:00:27.958Z,101186.44
2023-02-13T17:03:34.536Z,101178.59
2023-02-13T17:06:38.588Z,101179.44
2023-02-13T17:09:42.424Z,101176.81
2023-02-13T17:12:47.098Z,101172.09
2023-02-13T17:15:52.128Z,101171.81
2023-02-13T17:18:57.447Z,101170.75
2023-02-13T17:22:01.346Z,101172.72
2023-02-13T17:25:08.422Z,101170.16
2023-02-13T17:28:15.848Z,101168.59
2023-02-13T17:31:19.777Z,101171.47
2023-02-13T17:34:25.067Z,101170.63
2023-02-13T17:37:30.209Z,101162.94
2023-02-13T17:40:34.066Z,101166.28
2023-02-13T17:43:37.921Z,101166.59
2023-02-13T17:46:42.122Z,101165.44
2023-02-13T17:49:47.975Z,101168.47
2023-02-13T17:52:51.982Z,101165.50
2023-02-13T17:55:55.815Z,101161.41
2023-02-13T17:58:59.630Z,101164.59
2023-02-13T18:02:03.558Z,101168.59
2023-02-13T18:05:09.915Z,101170.47
2023-02-13T18:08:13.675Z,101168.25
2023-02-13T18:11:17.405Z,101166.72
2023-02-13T18:14:21.209Z,101160.69
2023-02-13T18:17:24.953Z,101170.13
2023-02-13T18:20:30.245Z,101168.78
2023-02-13T18:23:34.063Z,101174.97
2023-02-13T18:26:37.910Z,101173.66
2023-02-13T18:29:41.711Z,101165.00
2023-02-13T18:32:45.517Z,101166.66
2023-02-13T18:35:50.813Z,101175.81
2023-02-13T18:38:54.679Z,101178.88
2023-02-13T18:41:58.564Z,101173.56
2023-02-13T18:45:02.333Z,101171.69
2023-02-13T18:48:08.905Z,101169.34
2023-02-13T18:51:39.117Z,101168.13
2023-02-13T18:54:42.908Z,101162.25
2023-02-13T18:57:46.705Z,101166.31
2023-02-13T19:00:50.548Z,101160.09
2023-02-13T19:03:55.688Z,101155.91
2023-02-13T19:07:00.916Z,101158.00
2023-02-13T19:10:04.916Z,101155.06
2023-02-13T19:13:08.696Z,101149.88
2023-02-13T19:16:15.786Z,101155.19
2023-02-13T19:19:19.649Z,101155.13
2023-02-13T19:22:24.917Z,101152.44
2023-02-13T19:25:28.766Z,101147.91
2023-02-13T19:28:32.587Z,101155.03
2023-02-13T19:31:36.729Z,101144.56
2023-02-13T19:34:40.527Z,101138.19
2023-02-13T19:37:45.841Z,101151.44
2023-02-13T19:40:49.646Z,101141.97
2023-02-13T19:43:53.856Z,101144.03
2023-02-13T19:46:57.798Z,101144.13
2023-02-13T19:50:01.606Z,101145.22
2023-02-13T19:53:07.980Z,101145.03
2023-02-13T19:56:14.498Z,101151.22
2023-02-13T19:59:18.359Z,101150.31
2023-02-13T20:02:22.669Z,101150.00
2023-02-13T20:05:26.467Z,101147.72
2023-02-13T20:08:31.794Z,101152.72
2023-02-13T20:11:35.785Z,101146.13
2023-02-13T20:14:39.547Z,101147.91
2023-02-13T20:17:43.284Z,101142.19
2023-02-13T20:20:47.086Z,101151.03
2023-02-13T20:23:53.426Z,101158.09
2023-02-13T20:26:59.162Z,101153.69
2023-02-13T20:30:06.829Z,101140.84
2023-02-13T20:33:11.636Z,101142.34
2023-02-13T20:36:17.056Z,101138.59
2023-02-13T20:39:22.385Z,101138.50
2023-02-13T20:42:26.408Z,101133.66
2023-02-13T20:45:30.189Z,101142.63
2023-02-13T20:48:36.118Z,101136.91
2023-02-13T20:51:40.351Z,101135.25
2023-02-13T20:54:45.692Z,101125.63
2023-02-13T20:57:49.491Z,101131.22
2023-02-13T21:00:53.347Z,101133.00
2023-02-13T21:03:58.091Z,101128.19
2023-02-13T21:07:01.913Z,101132.06
2023-02-13T21:10:08.344Z,101128.19
2023-02-13T21:13:12.247Z,101121.94
2023-02-13T21:16:18.028Z,101114.78
2023-02-13T21:19:22.309Z,101120.00
2023-02-13T21:22:26.187Z,101117.59
2023-02-13T21:25:31.419Z,101109.69
2023-02-13T21:28:35.950Z,101105.16
2023-02-13T21:31:44.434Z,101098.88
2023-02-13T21:34:48.313Z,101104.06
2023-02-13T21:37:52.137Z,101101.06
2023-02-13T21:40:57.953Z,101095.25
2023-02-13T21:44:01.910Z,101086.56
2023-02-13T21:47:07.175Z,101082.63
2023-02-13T21:50:11.708Z,101083.78
2023-02-13T21:53:15.500Z,101089.56
2023-02-13T21:56:22.218Z,101090.72
2023-02-13T21:59:26.059Z,101088.13
2023-02-13T22:02:30.020Z,101088.44
2023-02-13T22:05:33.903Z,101082.22
2023-02-13T22:08:37.827Z,101081.47
2023-02-13T22:11:43.536Z,101079.63
2023-02-13T22:14:47.279Z,101079.81
2023-02-13T22:17:51.145Z,101084.59
2023-02-13T22:20:55.575Z,101074.63
2023-02-13T22:23:59.932Z,101083.31
2023-02-13T22:27:05.434Z,101075.41
2023-02-13T22:30:10.088Z,101082.00
2023-02-13T22:33:13.905Z,101072.13
2023-02-13T22:36:22.313Z,101072.25
2023-02-13T22:39:26.346Z,101060.97
2023-02-13T22:42:31.930Z,101059.34
2023-02-13T22:45:36.445Z,101056.28
2023-02-13T22:48:41.042Z,101056.06
2023-02-13T22:51:44.745Z,101052.59
2023-02-13T22:54:48.602Z,101048.69
2023-02-13T22:57:54.637Z,101042.78
2023-02-13T23:00:58.607Z,101040.16
2023-02-13T23:04:02.618Z,101053.03
2023-02-13T23:07:06.387Z,101030.03
2023-02-13T23:10:10.663Z,101029.34
2023-02-13T23:13:14.948Z,101036.81
2023-02-13T23:16:18.841Z,101022.69
2023-02-13T23:19:22.085Z,101024.59
2023-02-13T23:22:25.897Z,101024.06
2023-02-13T23:25:29.665Z,101022.41
2023-02-13T23:28:35.097Z,101018.09
2023-02-13T23:31:39.106Z,101019.69
2023-02-13T23:34:42.986Z,101019.75
2023-02-13T23:37:46.728Z,101011.97
2023-02-13T23:40:50.498Z,101005.19
2023-02-13T23:43:55.903Z,100996.44
2023-02-13T23:46:59.595Z,100998.19
2023-02-13T23:50:03.354Z,100991.09
2023-02-13T23:53:06.932Z,100993.28
2023-02-13T23:56:10.788Z,100985.53
2023-02-13T23:59:17.594Z,100981.63
